Time;durP1;ratioP1;P1;durP2;ratioP2;P2;SDS_P1;SDS_P2;PMS_P1;PMS_P2;Temp;Humidity;BMP_temperature;BMP_pressure;BME280_temperature;BME280_humidity;BME280_pressure;Samples;Min_cycle;Max_cycle;Signal;HPM_P1;HPM_P2
2022/10/05 00:00:40;;;;;;;3.58;2.00;;;;;;;;;;6177689;23;20005;-81
2022/10/05 00:03:10;;;;;;;3.40;1.92;;;;;;;;;;6178348;23;20001;-80
2022/10/05 00:05:36;;;;;;;3.80;2.63;;;;;;;;;;6178244;23;20001;-81
2022/10/05 00:08:19;;;;;;;4.13;2.63;;;;;;;;;;6176695;23;20076;-81
2022/10/05 00:10:46;;;;;;;4.07;2.25;;;;;;;;;;6177780;23;20066;-81
2022/10/05 00:13:26;;;;;;;3.40;2.42;;;;;;;;;;6178100;23;20032;-79
2022/10/05 00:15:57;;;;;;;4.15;2.10;;;;;;;;;;6177439;23;20139;-81
2022/10/05 00:18:23;;;;;;;3.80;2.30;;;;;;;;;;6177815;23;20386;-81
2022/10/05 00:20:50;;;;;;;2.65;2.13;;;;;;;;;;6177453;23;20297;-78
2022/10/05 00:23:18;;;;;;;3.10;1.70;;;;;;;;;;6176025;23;20003;-81
2022/10/05 00:25:44;;;;;;;5.20;2.00;;;;;;;;;;6177696;23;20032;-82
2022/10/05 00:28:16;;;;;;;2.40;1.70;;;;;;;;;;6177865;23;20080;-80
2022/10/05 00:30:42;;;;;;;3.38;1.30;;;;;;;;;;6177530;23;20009;-75
2022/10/05 00:33:08;;;;;;;3.88;1.27;;;;;;;;;;6176765;23;20020;-77
2022/10/05 00:35:35;;;;;;;3.60;1.40;;;;;;;;;;6177594;23;20050;-78
2022/10/05 00:38:01;;;;;;;3.08;1.63;;;;;;;;;;6178044;23;20092;-82
2022/10/05 00:40:30;;;;;;;3.45;1.20;;;;;;;;;;6177589;23;20588;-76
2022/10/05 00:43:15;;;;;;;1.63;1.02;;;;;;;;;;6177882;23;20004;-74
2022/10/05 00:45:47;;;;;;;3.38;1.50;;;;;;;;;;6175687;23;20116;-73
2022/10/05 00:48:22;;;;;;;4.03;1.23;;;;;;;;;;6177735;23;20047;-78
2022/10/05 00:50:57;;;;;;;2.97;1.25;;;;;;;;;;6177156;23;20009;-82
2022/10/05 00:53:27;;;;;;;2.75;1.10;;;;;;;;;;6177279;23;20008;-77
2022/10/05 00:55:56;;;;;;;1.80;1.10;;;;;;;;;;6177495;23;20013;-81
2022/10/05 00:58:28;;;;;;;2.42;1.13;;;;;;;;;;6177717;23;20321;-74
2022/10/05 01:01:04;;;;;;;2.08;0.90;;;;;;;;;;6175978;23;20001;-82
2022/10/05 01:03:37;;;;;;;3.97;1.25;;;;;;;;;;6177391;23;20016;-82
2022/10/05 01:06:06;;;;;;;1.80;1.10;;;;;;;;;;6151256;23;20346;-77
2022/10/05 01:08:40;;;;;;;4.85;1.17;;;;;;;;;;6175887;23;20009;-82
2022/10/05 01:11:06;;;;;;;1.63;1.00;;;;;;;;;;6172612;23;20433;-82
2022/10/05 01:13:35;;;;;;;2.50;0.90;;;;;;;;;;6172093;23;20553;-82
2022/10/05 01:16:20;;;;;;;1.48;0.88;;;;;;;;;;6173750;23;20013;-83
2022/10/05 01:19:09;;;;;;;2.40;1.30;;;;;;;;;;6173964;23;20342;-82
2022/10/05 01:21:44;;;;;;;3.25;1.20;;;;;;;;;;6173239;23;20083;-81
2022/10/05 01:24:25;;;;;;;2.58;1.35;;;;;;;;;;6174155;23;20093;-78
2022/10/05 01:27:07;;;;;;;2.53;1.73;;;;;;;;;;6143103;23;20063;-78
2022/10/05 01:29:43;;;;;;;2.63;1.50;;;;;;;;;;6172433;23;20454;-78
2022/10/05 01:32:22;;;;;;;6.95;1.50;;;;;;;;;;6173166;23;20008;-77
2022/10/05 01:35:00;;;;;;;2.47;1.30;;;;;;;;;;6145612;23;20021;-81
2022/10/05 01:37:30;;;;;;;1.83;0.90;;;;;;;;;;6171388;23;20059;-81
2022/10/05 01:39:59;;;;;;;2.95;1.40;;;;;;;;;;6173460;23;20521;-81
2022/10/05 01:42:25;;;;;;;1.92;1.10;;;;;;;;;;6173159;23;20005;-77
2022/10/05 01:44:54;;;;;;;3.25;1.35;;;;;;;;;;6173092;23;20131;-80
2022/10/05 01:47:24;;;;;;;1.67;1.20;;;;;;;;;;6172578;23;20012;-81
2022/10/05 01:49:50;;;;;;;4.45;1.52;;;;;;;;;;6171714;23;20008;-80
2022/10/05 01:52:16;;;;;;;7.38;1.50;;;;;;;;;;6172573;23;20001;-79
2022/10/05 01:55:01;;;;;;;4.72;1.35;;;;;;;;;;6172802;23;20027;-78
2022/10/05 01:57:46;;;;;;;1.83;1.27;;;;;;;;;;6170800;23;20481;-80
2022/10/05 02:00:17;;;;;;;1.67;1.30;;;;;;;;;;6172725;23;20213;-80
2022/10/05 02:02:47;;;;;;;4.05;1.45;;;;;;;;;;6173670;23;20019;-76
2022/10/05 02:05:16;;;;;;;2.47;1.23;;;;;;;;;;6171040;23;20005;-76
2022/10/05 02:07:45;;;;;;;1.35;1.17;;;;;;;;;;6172177;23;20080;-77
2022/10/05 02:10:11;;;;;;;2.10;1.20;;;;;;;;;;6172208;23;20009;-79
2022/10/05 02:12:37;;;;;;;2.40;1.23;;;;;;;;;;6172923;23;20028;-80
2022/10/05 02:15:09;;;;;;;1.80;1.35;;;;;;;;;;6146226;23;20021;-81
2022/10/05 02:17:38;;;;;;;2.25;1.40;;;;;;;;;;6170797;23;20072;-82
2022/10/05 02:20:10;;;;;;;2.80;1.50;;;;;;;;;;6172493;23;20076;-81
2022/10/05 02:22:50;;;;;;;1.92;1.20;;;;;;;;;;6171946;23;20837;-81
2022/10/05 02:25:19;;;;;;;2.03;1.17;;;;;;;;;;6168771;23;20442;-78
2022/10/05 02:27:48;;;;;;;3.22;1.50;;;;;;;;;;6172823;23;20469;-80
2022/10/05 02:30:17;;;;;;;2.10;1.30;;;;;;;;;;6171840;23;20001;-71
2022/10/05 02:32:55;;;;;;;3.17;1.20;;;;;;;;;;6172216;23;20426;-79
2022/10/05 02:35:22;;;;;;;4.20;1.30;;;;;;;;;;6143944;23;20021;-81
2022/10/05 02:37:56;;;;;;;3.72;1.73;;;;;;;;;;6171778;23;20009;-78
2022/10/05 02:40:41;;;;;;;1.95;1.30;;;;;;;;;;6172370;23;20011;-77
2022/10/05 02:43:26;;;;;;;2.50;1.20;;;;;;;;;;6145473;23;20546;-76
2022/10/05 02:45:55;;;;;;;2.67;1.35;;;;;;;;;;6172271;23;20016;-79
2022/10/05 02:48:39;;;;;;;3.40;1.30;;;;;;;;;;6170427;23;20072;-82
2022/10/05 02:51:15;;;;;;;3.20;1.92;;;;;;;;;;6171907;23;20430;-75
2022/10/05 02:54:00;;;;;;;2.55;1.38;;;;;;;;;;6172397;23;20285;-81
2022/10/05 02:56:49;;;;;;;2.55;1.23;;;;;;;;;;6172094;23;20013;-77
2022/10/05 02:59:38;;;;;;;2.55;1.30;;;;;;;;;;6152914;23;20005;-81
2022/10/05 03:02:04;;;;;;;2.80;1.10;;;;;;;;;;6169861;23;20028;-81
2022/10/05 03:04:36;;;;;;;2.90;1.05;;;;;;;;;;6171339;23;20036;-80
2022/10/05 03:07:09;;;;;;;3.10;1.10;;;;;;;;;;6170570;23;20005;-79
2022/10/05 03:09:55;;;;;;;1.63;1.10;;;;;;;;;;6170881;23;20080;-81
2022/10/05 03:12:30;;;;;;;1.67;1.10;;;;;;;;;;6144102;23;20009;-82
2022/10/05 03:14:56;;;;;;;2.40;0.90;;;;;;;;;;6171523;23;20013;-82
2022/10/05 03:17:25;;;;;;;2.05;1.33;;;;;;;;;;6170758;23;20128;-82
2022/10/05 03:20:03;;;;;;;2.15;1.20;;;;;;;;;;6168029;23;20028;-81
2022/10/05 03:22:48;;;;;;;1.75;1.10;;;;;;;;;;6141662;23;20087;-81
2022/10/05 03:25:23;;;;;;;3.80;1.08;;;;;;;;;;6166890;23;20010;-79
2022/10/05 03:27:55;;;;;;;2.63;1.08;;;;;;;;;;6167051;23;20048;-82
2022/10/05 03:30:24;;;;;;;2.63;1.20;;;;;;;;;;6169138;23;20092;-78
2022/10/05 03:32:50;;;;;;;3.08;1.02;;;;;;;;;;6168960;23;20472;-82
2022/10/05 03:35:16;;;;;;;2.40;1.20;;;;;;;;;;6168933;23;20020;-79
2022/10/05 03:38:01;;;;;;;2.80;1.10;;;;;;;;;;6169660;23;19997;-80
2022/10/05 03:40:39;;;;;;;2.47;1.15;;;;;;;;;;6169533;23;20000;-82
2022/10/05 03:43:20;;;;;;;2.65;1.10;;;;;;;;;;6171103;23;20005;-75
2022/10/05 03:45:51;;;;;;;4.38;1.30;;;;;;;;;;6169174;23;20031;-78
2022/10/05 03:48:28;;;;;;;2.03;1.30;;;;;;;;;;6170911;23;20326;-80
2022/10/05 03:51:21;;;;;;;1.52;1.08;;;;;;;;;;6143495;23;20001;-79
2022/10/05 03:53:49;;;;;;;3.45;1.20;;;;;;;;;;6163564;23;20362;-76
2022/10/05 03:56:33;;;;;;;3.00;1.40;;;;;;;;;;6169930;23;20013;-81
2022/10/05 03:59:02;;;;;;;3.47;1.20;;;;;;;;;;6167907;23;20119;-82
2022/10/05 04:01:54;;;;;;;4.28;1.23;;;;;;;;;;6166633;23;20009;-78
2022/10/05 04:04:36;;;;;;;4.25;1.00;;;;;;;;;;6135410;23;20079;-81
2022/10/05 04:07:02;;;;;;;;;;;;;;;;;;6170099;23;20075;-82
2022/10/05 04:09:28;;;;;;;1.65;1.13;;;;;;;;;;6165289;23;19908;-82
2022/10/05 04:12:14;;;;;;;1.67;1.00;;;;;;;;;;6167682;23;20013;-82
2022/10/05 04:14:46;;;;;;;2.20;1.15;;;;;;;;;;6141489;23;20032;-81
2022/10/05 04:17:12;;;;;;;;;;;;;;;;;;6169724;23;20023;-81
2022/10/05 04:19:43;;;;;;;4.90;1.35;;;;;;;;;;6169276;23;19907;-80
2022/10/05 04:22:15;;;;;;;2.30;1.10;;;;;;;;;;6166725;23;20012;-79
2022/10/05 04:24:45;;;;;;;2.10;1.30;;;;;;;;;;6165714;23;20233;-81
2022/10/05 04:27:17;;;;;;;1.52;1.10;;;;;;;;;;6167430;23;20001;-75
2022/10/05 04:29:43;;;;;;;;;;;;;;;;;;6167809;23;20005;-82
2022/10/05 04:32:15;;;;;;;2.40;1.25;;;;;;;;;;6167944;23;19930;-82
2022/10/05 04:35:00;;;;;;;2.58;1.10;;;;;;;;;;6167091;23;20009;-76
2022/10/05 04:37:41;;;;;;;3.05;1.30;;;;;;;;;;6166020;23;20052;-82
2022/10/05 04:40:07;;;;;;;3.30;1.25;;;;;;;;;;6169222;23;20084;-81
2022/10/05 04:42:39;;;;;;;1.50;1.00;;;;;;;;;;6169628;23;20385;-78
2022/10/05 04:45:05;;;;;;;;;;;;;;;;;;6167244;23;20850;-79
2022/10/05 04:47:37;;;;;;;3.08;1.20;;;;;;;;;;6169349;23;20465;-78
2022/10/05 04:50:07;;;;;;;2.25;1.10;;;;;;;;;;6170984;23;19997;-79
2022/10/05 04:52:52;;;;;;;6.90;1.50;;;;;;;;;;6169693;23;20143;-78
2022/10/05 04:55:34;;;;;;;4.20;1.20;;;;;;;;;;6168801;23;20028;-77
2022/10/05 04:58:13;;;;;;;4.20;1.30;;;;;;;;;;6167961;23;20275;-80
2022/10/05 05:00:57;;;;;;;4.07;1.25;;;;;;;;;;6168224;23;20009;-81
2022/10/05 05:03:24;;;;;;;6.05;1.10;;;;;;;;;;6166180;23;20432;-81
2022/10/05 05:06:08;;;;;;;2.80;1.02;;;;;;;;;;6168349;23;20422;-79
2022/10/05 05:08:55;;;;;;;6.28;1.50;;;;;;;;;;6169897;23;20005;-82
2022/10/05 05:11:34;;;;;;;2.50;1.33;;;;;;;;;;6167747;23;20422;-82
2022/10/05 05:14:09;;;;;;;3.70;1.20;;;;;;;;;;6170552;23;20406;-78
2022/10/05 05:16:43;;;;;;;2.08;1.05;;;;;;;;;;6169351;23;20092;-81
2022/10/05 05:19:27;;;;;;;3.50;1.30;;;;;;;;;;6170043;23;20509;-80
2022/10/05 05:22:03;;;;;;;1.80;1.17;;;;;;;;;;6168784;23;20015;-81
2022/10/05 05:24:48;;;;;;;3.83;2.08;;;;;;;;;;6141084;23;20001;-73
2022/10/05 05:27:24;;;;;;;2.25;1.00;;;;;;;;;;6169675;23;20534;-81
2022/10/05 05:29:50;;;;;;;3.90;1.20;;;;;;;;;;6168988;23;20001;-78
2022/10/05 05:32:35;;;;;;;5.97;2.97;;;;;;;;;;6169338;23;19997;-78
2022/10/05 05:35:30;;;;;;;18.67;13.50;;;;;;;;;;6169530;23;20017;-82
2022/10/05 05:37:57;;;;;;;10.50;7.30;;;;;;;;;;6167499;23;20005;-83
2022/10/05 05:40:25;;;;;;;15.02;5.65;;;;;;;;;;6143311;23;20044;-80
2022/10/05 05:42:52;;;;;;;29.00;13.68;;;;;;;;;;6169831;23;20009;-82
2022/10/05 05:45:18;;;;;;;31.00;21.42;;;;;;;;;;6170599;23;20001;-80
2022/10/05 05:47:50;;;;;;;15.95;11.60;;;;;;;;;;6141098;23;20001;-76
2022/10/05 05:50:23;;;;;;;10.70;6.53;;;;;;;;;;6168244;23;20333;-78
2022/10/05 05:52:54;;;;;;;7.97;5.20;;;;;;;;;;6170743;23;20042;-80
2022/10/05 05:55:21;;;;;;;7.68;4.40;;;;;;;;;;6169054;23;20063;-78
2022/10/05 05:57:56;;;;;;;7.15;3.53;;;;;;;;;;6169452;23;20083;-80
2022/10/05 06:00:42;;;;;;;13.30;4.35;;;;;;;;;;6167514;23;20409;-79
2022/10/05 06:03:21;;;;;;;9.48;5.63;;;;;;;;;;6168099;23;20001;-77
2022/10/05 06:05:49;;;;;;;15.07;5.75;;;;;;;;;;6169689;23;20414;-78
2022/10/05 06:08:38;;;;;;;10.63;5.80;;;;;;;;;;6169535;23;20088;-76
2022/10/05 06:11:04;;;;;;;16.63;5.88;;;;;;;;;;6167372;23;20238;-76
2022/10/05 06:13:33;;;;;;;12.23;5.68;;;;;;;;;;6169305;23;20052;-77
2022/10/05 06:16:05;;;;;;;6.97;4.63;;;;;;;;;;6168862;23;20328;-75
2022/10/05 06:18:32;;;;;;;7.60;4.20;;;;;;;;;;6169342;23;20007;-79
2022/10/05 06:21:04;;;;;;;7.65;3.00;;;;;;;;;;6169124;23;20495;-77
2022/10/05 06:23:44;;;;;;;5.38;2.90;;;;;;;;;;6167412;23;20063;-79
2022/10/05 06:26:16;;;;;;;5.15;2.85;;;;;;;;;;6168605;23;20009;-79
2022/10/05 06:28:42;;;;;;;9.27;3.55;;;;;;;;;;6169527;23;20253;-79
2022/10/05 06:31:23;;;;;;;7.25;4.13;;;;;;;;;;6168811;23;20294;-78
2022/10/05 06:33:51;;;;;;;6.40;3.80;;;;;;;;;;6168174;23;20012;-78
2022/10/05 06:36:36;;;;;;;8.82;4.00;;;;;;;;;;6168912;23;20655;-79
2022/10/05 06:39:12;;;;;;;7.75;3.20;;;;;;;;;;6166435;23;20017;-77
2022/10/05 06:41:57;;;;;;;7.55;3.65;;;;;;;;;;6169270;23;19996;-77
2022/10/05 06:44:27;;;;;;;21.40;15.80;;;;;;;;;;6163718;23;20076;-78
2022/10/05 06:46:59;;;;;;;17.55;11.68;;;;;;;;;;6142329;23;20001;-84
2022/10/05 06:49:39;;;;;;;7.20;5.15;;;;;;;;;;6165872;23;20005;-81
2022/10/05 06:52:24;;;;;;;9.98;6.18;;;;;;;;;;6168239;23;20009;-84
2022/10/05 06:55:05;;;;;;;7.70;2.80;;;;;;;;;;6168780;23;20013;-81
2022/10/05 06:57:51;;;;;;;4.70;4.18;;;;;;;;;;6167639;23;20025;-81
2022/10/05 07:00:20;;;;;;;10.93;6.65;;;;;;;;;;6169434;23;20004;-82
2022/10/05 07:03:04;;;;;;;10.90;7.30;;;;;;;;;;6168703;23;20005;-83
2022/10/05 07:05:45;;;;;;;8.77;5.13;;;;;;;;;;6169804;23;20255;-84
2022/10/05 07:08:15;;;;;;;7.18;4.05;;;;;;;;;;6169520;23;19997;-85
2022/10/05 07:10:53;;;;;;;3.45;2.50;;;;;;;;;;6168475;23;20009;-82
2022/10/05 07:13:19;;;;;;;7.85;2.85;;;;;;;;;;6169668;23;20001;-81
2022/10/05 07:15:54;;;;;;;7.70;3.35;;;;;;;;;;6169015;23;20013;-83
2022/10/05 07:18:34;;;;;;;5.57;2.30;;;;;;;;;;6167364;23;20105;-84
2022/10/05 07:21:25;;;;;;;3.35;1.88;;;;;;;;;;6169243;23;20713;-83
2022/10/05 07:23:52;;;;;;;5.10;3.38;;;;;;;;;;6168358;23;20086;-84
2022/10/05 07:26:22;;;;;;;10.05;6.35;;;;;;;;;;6170792;23;20335;-82
2022/10/05 07:28:53;;;;;;;8.52;6.00;;;;;;;;;;6169378;23;19994;-86
2022/10/05 07:31:22;;;;;;;4.95;3.42;;;;;;;;;;6170554;23;20016;-85
2022/10/05 07:33:48;;;;;;;7.40;4.65;;;;;;;;;;6167171;23;20005;-80
2022/10/05 07:39:31;;;;;;;3.50;2.35;;;;;;;;;;6170229;23;20067;-81
2022/10/05 07:42:33;;;;;;;4.00;2.47;;;;;;;;;;6170385;23;20433;-83
2022/10/05 07:44:59;;;;;;;;;;;;;;;;;;6018249;23;20114;-78
2022/10/05 07:47:36;;;;;;;3.55;2.08;;;;;;;;;;6140070;23;19988;-79
2022/10/05 07:50:08;;;;;;;4.28;1.98;;;;;;;;;;6142827;23;20013;-78
2022/10/05 07:52:39;;;;;;;4.90;2.55;;;;;;;;;;6170263;23;20115;-83
2022/10/05 07:55:20;;;;;;;4.25;2.53;;;;;;;;;;6168744;23;20015;-76
2022/10/05 07:58:11;;;;;;;2.92;2.63;;;;;;;;;;6166275;23;20450;-76
2022/10/05 08:00:41;;;;;;;6.30;2.88;;;;;;;;;;6142044;23;20013;-77
2022/10/05 08:03:11;;;;;;;5.72;2.35;;;;;;;;;;6169020;23;20001;-78
2022/10/05 08:05:40;;;;;;;3.38;2.03;;;;;;;;;;6168966;23;20028;-78
2022/10/05 08:08:22;;;;;;;6.07;2.78;;;;;;;;;;6166333;23;20051;-78
2022/10/05 08:11:11;;;;;;;11.95;2.92;;;;;;;;;;6169978;23;20016;-77
2022/10/05 08:13:40;;;;;;;5.63;3.40;;;;;;;;;;6151028;23;20009;-77
2022/10/05 08:16:13;;;;;;;6.40;4.05;;;;;;;;;;6170917;23;20580;-76
2022/10/05 08:18:58;;;;;;;8.57;4.95;;;;;;;;;;6169559;23;20004;-78
2022/10/05 08:21:39;;;;;;;9.75;6.43;;;;;;;;;;6169374;23;20055;-76
2022/10/05 08:24:11;;;;;;;9.70;4.13;;;;;;;;;;6142515;23;20079;-76
2022/10/05 08:26:43;;;;;;;5.47;3.38;;;;;;;;;;6168899;23;20089;-76
2022/10/05 08:29:39;;;;;;;10.48;3.00;;;;;;;;;;6168881;23;20005;-77
2022/10/05 08:32:09;;;;;;;2.95;2.28;;;;;;;;;;6139767;23;20009;-77
2022/10/05 08:34:39;;;;;;;3.30;2.37;;;;;;;;;;6167578;23;20618;-77
2022/10/05 08:37:21;;;;;;;3.83;2.70;;;;;;;;;;6170395;23;20100;-77
2022/10/05 08:40:14;;;;;;;12.50;8.43;;;;;;;;;;6169033;23;20457;-78
2022/10/05 08:42:52;;;;;;;14.57;10.55;;;;;;;;;;6161800;23;20116;-77
2022/10/05 08:45:37;;;;;;;7.53;5.50;;;;;;;;;;6168505;23;20073;-78
2022/10/05 08:48:15;;;;;;;5.60;3.75;;;;;;;;;;6170275;23;20084;-77
2022/10/05 08:51:00;;;;;;;5.53;3.00;;;;;;;;;;6169219;23;20087;-77
2022/10/05 08:53:45;;;;;;;4.15;1.92;;;;;;;;;;6170056;23;20005;-77
2022/10/05 08:56:14;;;;;;;3.47;1.90;;;;;;;;;;6167924;23;20496;-78
2022/10/05 08:58:59;;;;;;;8.02;1.90;;;;;;;;;;6169493;23;20115;-78
2022/10/05 09:01:25;;;;;;;5.07;2.33;;;;;;;;;;6143882;23;20015;-78
2022/10/05 09:03:54;;;;;;;8.32;3.90;;;;;;;;;;6169699;23;20067;-78
2022/10/05 09:06:23;;;;;;;6.05;3.15;;;;;;;;;;6144211;23;20094;-77
2022/10/05 09:09:05;;;;;;;5.20;3.10;;;;;;;;;;6144069;23;20005;-77
2022/10/05 09:11:38;;;;;;;3.80;1.92;;;;;;;;;;6169497;23;19997;-77
2022/10/05 09:14:34;;;;;;;5.78;2.15;;;;;;;;;;6144413;23;20029;-78
2022/10/05 09:17:11;;;;;;;4.65;1.98;;;;;;;;;;6040004;23;20042;-78
2022/10/05 09:19:59;;;;;;;3.83;1.27;;;;;;;;;;6170612;23;20005;-78
2022/10/05 09:22:26;;;;;;;2.78;1.40;;;;;;;;;;6170682;23;20009;-73
2022/10/05 09:24:57;;;;;;;3.35;1.60;;;;;;;;;;6168920;23;20008;-78
2022/10/05 09:27:37;;;;;;;1.95;1.65;;;;;;;;;;6171358;23;20080;-78
2022/10/05 09:30:22;;;;;;;2.47;1.30;;;;;;;;;;6170210;23;20685;-78
2022/10/05 09:32:57;;;;;;;4.05;1.50;;;;;;;;;;6169425;23;20005;-79
2022/10/05 09:35:26;;;;;;;1.77;1.40;;;;;;;;;;6143258;23;20013;-78
2022/10/05 09:37:59;;;;;;;2.55;1.50;;;;;;;;;;6168253;23;20080;-78
2022/10/05 09:40:25;;;;;;;2.72;1.92;;;;;;;;;;6170253;23;20032;-78
2022/10/05 09:43:00;;;;;;;3.28;1.83;;;;;;;;;;6169729;23;20076;-78
2022/10/05 09:45:34;;;;;;;6.43;2.50;;;;;;;;;;6142726;23;20059;-79
2022/10/05 09:48:03;;;;;;;4.25;2.53;;;;;;;;;;6169297;23;20011;-78
2022/10/05 09:50:42;;;;;;;3.78;2.10;;;;;;;;;;6167827;23;20120;-79
2022/10/05 09:53:20;;;;;;;3.63;2.63;;;;;;;;;;6169573;23;20005;-80
2022/10/05 09:56:00;;;;;;;7.15;2.90;;;;;;;;;;6167790;23;20075;-78
2022/10/05 09:58:38;;;;;;;4.90;2.45;;;;;;;;;;6169354;23;19994;-79
2022/10/05 10:01:21;;;;;;;3.95;2.13;;;;;;;;;;6167000;23;20028;-77
2022/10/05 10:04:08;;;;;;;4.13;2.45;;;;;;;;;;6165740;23;20029;-76
2022/10/05 10:06:38;;;;;;;3.10;2.05;;;;;;;;;;6169501;23;20076;-77
2022/10/05 10:09:26;;;;;;;2.60;1.98;;;;;;;;;;6168600;23;20034;-78
2022/10/05 10:12:10;;;;;;;3.25;1.67;;;;;;;;;;6096395;23;20389;-78
2022/10/05 10:14:39;;;;;;;2.83;2.15;;;;;;;;;;6169025;23;20035;-79
2022/10/05 10:17:24;;;;;;;3.03;1.63;;;;;;;;;;6169294;23;20037;-78
2022/10/05 10:20:06;;;;;;;2.55;1.85;;;;;;;;;;6169201;23;20054;-78
2022/10/05 10:22:38;;;;;;;3.33;1.80;;;;;;;;;;6169478;23;20438;-77
2022/10/05 10:25:27;;;;;;;2.58;1.67;;;;;;;;;;6170015;23;20001;-76
2022/10/05 10:28:12;;;;;;;2.22;1.70;;;;;;;;;;6141701;23;20583;-76
2022/10/05 10:30:46;;;;;;;2.50;1.50;;;;;;;;;;6170493;23;20015;-75
2022/10/05 10:33:21;;;;;;;2.17;1.20;;;;;;;;;;6170749;23;20036;-74
2022/10/05 10:35:47;;;;;;;3.15;1.77;;;;;;;;;;6167837;23;20016;-74
2022/10/05 10:38:21;;;;;;;8.38;6.32;;;;;;;;;;6170345;23;20001;-74
2022/10/05 10:40:59;;;;;;;13.68;11.32;;;;;;;;;;6169015;23;20249;-75
2022/10/05 10:43:28;;;;;;;4.72;3.22;;;;;;;;;;6169851;23;20035;-75
2022/10/05 10:45:59;;;;;;;3.47;1.63;;;;;;;;;;6169335;23;20429;-75
2022/10/05 10:48:28;;;;;;;7.57;5.18;;;;;;;;;;6170436;23;20012;-75
2022/10/05 10:51:19;;;;;;;9.05;5.82;;;;;;;;;;6143162;23;20135;-73
2022/10/05 10:54:11;;;;;;;4.20;3.17;;;;;;;;;;6169131;23;20012;-73
2022/10/05 10:56:56;;;;;;;5.85;3.03;;;;;;;;;;6111440;23;20017;-74
2022/10/05 10:59:41;;;;;;;5.78;1.95;;;;;;;;;;6142991;23;20045;-74
2022/10/05 11:02:07;;;;;;;5.22;3.05;;;;;;;;;;6168876;23;20028;-73
2022/10/05 11:04:54;;;;;;;13.95;4.78;;;;;;;;;;6168721;23;20001;-72
2022/10/05 11:07:39;;;;;;;3.28;1.58;;;;;;;;;;6166377;23;20005;-73
2022/10/05 11:10:08;;;;;;;1.90;1.35;;;;;;;;;;6168893;23;20009;-75
2022/10/05 11:12:47;;;;;;;1.70;1.33;;;;;;;;;;6168040;23;20001;-72
2022/10/05 11:15:31;;;;;;;2.60;1.25;;;;;;;;;;6171182;23;20711;-73
2022/10/05 11:18:20;;;;;;;6.75;3.28;;;;;;;;;;6142966;23;20734;-72
2022/10/05 11:21:05;;;;;;;22.88;11.07;;;;;;;;;;6101387;23;20013;-72
2022/10/05 11:23:34;;;;;;;5.68;3.00;;;;;;;;;;6171457;23;20333;-73
2022/10/05 11:26:00;;;;;;;12.25;6.97;;;;;;;;;;6170882;23;20007;-72
2022/10/05 11:28:45;;;;;;;8.30;2.55;;;;;;;;;;6170501;23;20123;-72
2022/10/05 11:31:30;;;;;;;10.48;4.90;;;;;;;;;;6170337;23;20005;-73
2022/10/05 11:34:15;;;;;;;9.80;5.78;;;;;;;;;;6168329;23;20484;-72
2022/10/05 11:36:53;;;;;;;9.00;5.25;;;;;;;;;;6170122;23;20016;-72
2022/10/05 11:39:19;;;;;;;5.60;3.80;;;;;;;;;;6170760;23;20001;-72
2022/10/05 11:42:04;;;;;;;11.70;6.95;;;;;;;;;;6170241;23;20017;-72
2022/10/05 11:44:37;;;;;;;16.65;9.07;;;;;;;;;;6168772;23;20005;-72
2022/10/05 11:47:11;;;;;;;14.73;8.82;;;;;;;;;;6170300;23;20501;-72
2022/10/05 11:49:44;;;;;;;15.02;7.55;;;;;;;;;;6170275;23;20001;-72
2022/10/05 11:52:26;;;;;;;8.98;4.97;;;;;;;;;;6170223;23;20008;-73
2022/10/05 11:55:01;;;;;;;12.80;5.90;;;;;;;;;;6170658;23;20020;-72
2022/10/05 11:57:33;;;;;;;14.48;5.20;;;;;;;;;;6142872;23;20013;-73
2022/10/05 12:00:05;;;;;;;7.63;4.05;;;;;;;;;;6170422;23;20398;-73
2022/10/05 12:02:41;;;;;;;10.73;4.20;;;;;;;;;;6170246;23;20009;-72
2022/10/05 12:05:09;;;;;;;8.52;3.95;;;;;;;;;;6171255;23;20075;-72
2022/10/05 12:07:44;;;;;;;8.27;4.47;;;;;;;;;;6169398;23;20008;-72
2022/10/05 12:10:43;;;;;;;8.23;4.50;;;;;;;;;;6168135;23;20005;-72
2022/10/05 12:13:09;;;;;;;5.63;2.90;;;;;;;;;;6064997;23;20377;-72
2022/10/05 12:15:46;;;;;;;3.72;1.77;;;;;;;;;;6169982;23;20015;-72
2022/10/05 12:18:22;;;;;;;5.25;2.50;;;;;;;;;;6171139;23;20009;-72
2022/10/05 12:21:00;;;;;;;3.78;2.00;;;;;;;;;;6167789;23;20012;-72
2022/10/05 12:23:26;;;;;;;5.13;2.30;;;;;;;;;;6170849;23;20441;-72
2022/10/05 12:25:52;;;;;;;2.85;1.75;;;;;;;;;;6168991;23;20040;-71
2022/10/05 12:28:37;;;;;;;2.25;1.38;;;;;;;;;;6170542;23;20012;-72
2022/10/05 12:31:09;;;;;;;6.53;3.45;;;;;;;;;;6170382;23;20009;-71
2022/10/05 12:33:41;;;;;;;5.13;2.80;;;;;;;;;;6169214;23;20003;-71
2022/10/05 12:36:07;;;;;;;2.42;1.85;;;;;;;;;;6171094;23;20451;-72
2022/10/05 12:38:36;;;;;;;6.53;1.45;;;;;;;;;;6168355;23;20100;-71
2022/10/05 12:41:21;;;;;;;2.65;1.20;;;;;;;;;;6170579;23;20035;-71
2022/10/05 12:44:01;;;;;;;2.10;1.42;;;;;;;;;;6167826;23;20129;-71
2022/10/05 12:46:27;;;;;;;2.00;1.45;;;;;;;;;;6170154;23;20005;-71
2022/10/05 12:49:05;;;;;;;8.98;4.53;;;;;;;;;;6170041;23;20024;-71
2022/10/05 12:51:37;;;;;;;4.43;1.75;;;;;;;;;;6167442;23;20606;-72
2022/10/05 12:54:03;;;;;;;;;;;;;;;;;;6169940;23;20013;-72
2022/10/05 12:56:48;;;;;;;3.35;1.80;;;;;;;;;;6169953;23;20329;-71
2022/10/05 12:59:49;;;;;;;2.53;1.15;;;;;;;;;;6169686;23;20409;-72
2022/10/05 13:02:30;;;;;;;1.40;0.90;;;;;;;;;;6020162;23;20013;-72
2022/10/05 13:04:56;;;;;;;2.63;1.52;;;;;;;;;;6155979;23;20095;-72
2022/10/05 13:07:38;;;;;;;3.90;2.30;;;;;;;;;;6170849;23;20504;-71
2022/10/05 13:10:23;;;;;;;4.57;2.60;;;;;;;;;;6169759;23;20005;-71
2022/10/05 13:13:01;;;;;;;2.10;1.17;;;;;;;;;;6169910;23;20005;-71
2022/10/05 13:15:30;;;;;;;2.05;1.05;;;;;;;;;;6170420;23;20100;-72
2022/10/05 13:18:00;;;;;;;2.25;0.90;;;;;;;;;;6167468;23;20008;-71
2022/10/05 13:20:41;;;;;;;1.98;1.50;;;;;;;;;;6142949;23;20029;-71
2022/10/05 13:23:07;;;;;;;;;;;;;;;;;;6170117;23;20005;-71
2022/10/05 13:25:36;;;;;;;1.63;1.02;;;;;;;;;;6170242;23;20788;-71
2022/10/05 13:28:16;;;;;;;2.72;1.17;;;;;;;;;;6170379;23;20029;-71
2022/10/05 13:30:50;;;;;;;2.78;1.38;;;;;;;;;;6167774;23;20072;-71
2022/10/05 13:33:24;;;;;;;3.05;1.55;;;;;;;;;;6169571;23;20005;-71
2022/10/05 13:36:07;;;;;;;3.60;1.40;;;;;;;;;;6169604;23;20458;-71
2022/10/05 13:38:42;;;;;;;3.15;1.80;;;;;;;;;;6165126;23;20009;-71
2022/10/05 13:41:14;;;;;;;6.07;1.92;;;;;;;;;;6169615;23;20068;-71
2022/10/05 13:43:42;;;;;;;3.45;1.40;;;;;;;;;;6169303;23;20009;-71
2022/10/05 13:46:19;;;;;;;7.38;1.73;;;;;;;;;;6169792;23;20570;-73
2022/10/05 13:48:48;;;;;;;3.67;1.20;;;;;;;;;;6169768;23;20488;-72
2022/10/05 13:51:18;;;;;;;6.10;1.60;;;;;;;;;;6167696;23;19997;-72
2022/10/05 13:53:49;;;;;;;2.70;1.48;;;;;;;;;;6168129;23;20013;-72
2022/10/05 13:56:20;;;;;;;2.50;1.25;;;;;;;;;;6169531;23;20012;-72
2022/10/05 13:58:58;;;;;;;5.30;1.85;;;;;;;;;;6168709;23;20028;-72
2022/10/05 14:01:42;;;;;;;2.85;1.50;;;;;;;;;;6168363;23;20012;-72
2022/10/05 14:04:23;;;;;;;2.00;1.60;;;;;;;;;;6169778;23;20008;-72
2022/10/05 14:06:51;;;;;;;2.72;1.38;;;;;;;;;;6169926;23;20013;-73
2022/10/05 14:09:24;;;;;;;1.40;1.30;;;;;;;;;;6169056;23;20008;-72
2022/10/05 14:12:05;;;;;;;2.30;1.40;;;;;;;;;;6169397;23;20063;-72
2022/10/05 14:14:33;;;;;;;6.47;3.42;;;;;;;;;;6169019;23;19993;-72
2022/10/05 14:17:05;;;;;;;5.93;3.15;;;;;;;;;;6167547;23;20019;-72
2022/10/05 14:19:40;;;;;;;2.75;1.20;;;;;;;;;;6169239;23;20021;-72
2022/10/05 14:22:23;;;;;;;4.72;2.00;;;;;;;;;;6168407;23;20089;-72
2022/10/05 14:24:56;;;;;;;5.95;3.20;;;;;;;;;;6167773;23;20001;-72
2022/10/05 14:27:28;;;;;;;6.70;3.10;;;;;;;;;;6169490;23;20009;-72
2022/10/05 14:29:56;;;;;;;2.83;1.27;;;;;;;;;;6168501;23;20009;-73
2022/10/05 14:32:23;;;;;;;1.70;0.77;;;;;;;;;;6169649;23;20005;-73
2022/10/05 14:35:00;;;;;;;3.38;1.17;;;;;;;;;;6166908;23;20068;-73
2022/10/05 14:37:32;;;;;;;1.08;0.80;;;;;;;;;;6167509;23;20078;-72
2022/10/05 14:40:01;;;;;;;2.25;1.05;;;;;;;;;;6168813;23;20178;-72
2022/10/05 14:42:29;;;;;;;6.57;3.33;;;;;;;;;;6169803;23;20411;-72
2022/10/05 14:45:15;;;;;;;4.32;2.30;;;;;;;;;;6166943;23;20059;-71
2022/10/05 14:47:48;;;;;;;5.10;2.03;;;;;;;;;;6167839;23;20005;-72
2022/10/05 14:50:16;;;;;;;3.65;1.98;;;;;;;;;;6169829;23;20087;-72
2022/10/05 14:52:46;;;;;;;5.18;3.05;;;;;;;;;;6170666;23;20492;-72
2022/10/05 14:55:31;;;;;;;3.60;1.65;;;;;;;;;;6170747;23;20788;-72
2022/10/05 14:58:02;;;;;;;4.47;2.03;;;;;;;;;;6169654;23;20001;-72
2022/10/05 15:00:31;;;;;;;6.35;2.75;;;;;;;;;;6168643;23;20474;-75
2022/10/05 15:03:09;;;;;;;2.20;1.40;;;;;;;;;;6169779;23;20028;-72
2022/10/05 15:05:35;;;;;;;2.75;1.20;;;;;;;;;;6170731;23;20194;-72
2022/10/05 15:08:13;;;;;;;5.13;2.03;;;;;;;;;;6171097;23;20001;-73
2022/10/05 15:10:51;;;;;;;4.55;2.20;;;;;;;;;;6143838;23;20467;-75
2022/10/05 15:13:25;;;;;;;4.10;1.77;;;;;;;;;;6168232;23;20433;-73
2022/10/05 15:15:59;;;;;;;3.08;1.52;;;;;;;;;;6169916;23;20462;-73
2022/10/05 15:18:28;;;;;;;3.40;1.38;;;;;;;;;;6170360;23;20084;-74
2022/10/05 15:20:55;;;;;;;3.45;1.20;;;;;;;;;;6169599;23;20009;-72
2022/10/05 15:23:25;;;;;;;3.25;1.30;;;;;;;;;;6170059;23;20001;-72
2022/10/05 15:26:00;;;;;;;2.47;1.35;;;;;;;;;;6142530;23;20016;-73
2022/10/05 15:28:47;;;;;;;2.30;1.35;;;;;;;;;;6169707;23;20012;-72
2022/10/05 15:31:25;;;;;;;2.95;1.30;;;;;;;;;;6169708;23;20029;-73
2022/10/05 15:33:57;;;;;;;3.70;1.00;;;;;;;;;;6170031;23;20036;-74